sensor_id;sensor_type;location;lat;lon;timestamp;temperature;humidity
52203;DHT22;38173;52.850;6.970;2023-05-27T00:01:37;6.50;99.90
52203;DHT22;38173;52.850;6.970;2023-05-27T00:04:03;6.50;99.90
52203;DHT22;38173;52.850;6.970;2023-05-27T00:06:32;6.50;99.90
52203;DHT22;38173;52.850;6.970;2023-05-27T00:09:01;6.50;99.90
52203;DHT22;38173;52.850;6.970;2023-05-27T00:11:31;6.50;99.90
52203;DHT22;38173;52.850;6.970;2023-05-27T00:13:57;6.50;99.90
52203;DHT22;38173;52.850;6.970;2023-05-27T00:16:23;6.50;99.90
52203;DHT22;38173;52.850;6.970;2023-05-27T00:18:50;6.50;99.90
52203;DHT22;38173;52.850;6.970;2023-05-27T00:21:22;6.50;99.90
52203;DHT22;38173;52.850;6.970;2023-05-27T00:23:50;6.50;99.90
52203;DHT22;38173;52.850;6.970;2023-05-27T00:26:16;6.60;99.90
52203;DHT22;38173;52.850;6.970;2023-05-27T00:28:46;6.60;99.90
52203;DHT22;38173;52.850;6.970;2023-05-27T00:31:11;6.60;99.90
52203;DHT22;38173;52.850;6.970;2023-05-27T00:33:46;6.60;99.90
52203;DHT22;38173;52.850;6.970;2023-05-27T00:36:16;6.60;99.90
52203;DHT22;38173;52.850;6.970;2023-05-27T00:38:50;6.70;99.90
52203;DHT22;38173;52.850;6.970;2023-05-27T00:41:20;6.70;99.90
52203;DHT22;38173;52.850;6.970;2023-05-27T00:43:48;6.60;99.90
52203;DHT22;38173;52.850;6.970;2023-05-27T00:46:21;6.60;99.90
52203;DHT22;38173;52.850;6.970;2023-05-27T00:48:53;6.50;99.90
52203;DHT22;38173;52.850;6.970;2023-05-27T00:51:20;6.40;99.90
52203;DHT22;38173;52.850;6.970;2023-05-27T00:53:46;6.40;99.90
52203;DHT22;38173;52.850;6.970;2023-05-27T00:56:12;6.30;99.90
52203;DHT22;38173;52.850;6.970;2023-05-27T00:58:41;6.30;99.90
52203;DHT22;38173;52.850;6.970;2023-05-27T01:01:07;6.20;99.90
52203;DHT22;38173;52.850;6.970;2023-05-27T01:03:34;6.10;99.90
52203;DHT22;38173;52.850;6.970;2023-05-27T01:06:44;6.10;99.90
52203;DHT22;38173;52.850;6.970;2023-05-27T01:11:41;6.00;99.90
52203;DHT22;38173;52.850;6.970;2023-05-27T01:14:17;5.90;99.90
52203;DHT22;38173;52.850;6.970;2023-05-27T01:16:43;5.80;99.90
52203;DHT22;38173;52.850;6.970;2023-05-27T01:19:14;5.80;99.90
52203;DHT22;38173;52.850;6.970;2023-05-27T01:21:42;5.70;99.90
52203;DHT22;38173;52.850;6.970;2023-05-27T01:24:10;5.70;99.90
52203;DHT22;38173;52.850;6.970;2023-05-27T01:26:43;5.70;99.90
52203;DHT22;38173;52.850;6.970;2023-05-27T01:29:09;5.70;99.90
52203;DHT22;38173;52.850;6.970;2023-05-27T01:31:48;5.70;99.90
52203;DHT22;38173;52.850;6.970;2023-05-27T01:34:37;5.60;99.90
52203;DHT22;38173;52.850;6.970;2023-05-27T01:37:06;5.50;99.90
52203;DHT22;38173;52.850;6.970;2023-05-27T01:39:35;5.50;99.90
52203;DHT22;38173;52.850;6.970;2023-05-27T01:42:01;5.50;99.90
52203;DHT22;38173;52.850;6.970;2023-05-27T01:44:31;5.60;99.90
52203;DHT22;38173;52.850;6.970;2023-05-27T01:47:04;5.70;99.90
52203;DHT22;38173;52.850;6.970;2023-05-27T01:49:30;5.70;99.90
52203;DHT22;38173;52.850;6.970;2023-05-27T01:51:56;5.70;99.90
52203;DHT22;38173;52.850;6.970;2023-05-27T01:54:22;5.70;99.90
52203;DHT22;38173;52.850;6.970;2023-05-27T01:56:48;5.70;99.90
52203;DHT22;38173;52.850;6.970;2023-05-27T01:59:14;5.70;99.90
52203;DHT22;38173;52.850;6.970;2023-05-27T02:01:40;5.70;99.90
52203;DHT22;38173;52.850;6.970;2023-05-27T02:04:10;5.80;99.90
52203;DHT22;38173;52.850;6.970;2023-05-27T02:06:40;5.80;99.90
52203;DHT22;38173;52.850;6.970;2023-05-27T02:09:06;5.80;99.90
52203;DHT22;38173;52.850;6.970;2023-05-27T02:11:33;5.70;99.90
52203;DHT22;38173;52.850;6.970;2023-05-27T02:14:13;5.70;99.90
52203;DHT22;38173;52.850;6.970;2023-05-27T02:16:39;5.70;99.90
52203;DHT22;38173;52.850;6.970;2023-05-27T02:19:12;5.60;99.90
52203;DHT22;38173;52.850;6.970;2023-05-27T02:21:41;5.60;99.90
52203;DHT22;38173;52.850;6.970;2023-05-27T02:24:10;5.50;99.90
52203;DHT22;38173;52.850;6.970;2023-05-27T02:26:41;5.50;99.90
52203;DHT22;38173;52.850;6.970;2023-05-27T02:29:07;5.50;99.90
52203;DHT22;38173;52.850;6.970;2023-05-27T02:31:33;5.50;99.90
52203;DHT22;38173;52.850;6.970;2023-05-27T02:34:00;5.50;99.90
52203;DHT22;38173;52.850;6.970;2023-05-27T02:36:33;5.50;99.90
52203;DHT22;38173;52.850;6.970;2023-05-27T02:39:06;5.50;99.90
52203;DHT22;38173;52.850;6.970;2023-05-27T02:41:35;5.50;99.90
52203;DHT22;38173;52.850;6.970;2023-05-27T02:44:04;5.40;99.90
52203;DHT22;38173;52.850;6.970;2023-05-27T02:46:31;5.50;99.90
52203;DHT22;38173;52.850;6.970;2023-05-27T02:48:56;5.50;99.90
52203;DHT22;38173;52.850;6.970;2023-05-27T02:51:23;5.50;99.90
52203;DHT22;38173;52.850;6.970;2023-05-27T02:53:50;5.50;99.90
52203;DHT22;38173;52.850;6.970;2023-05-27T02:56:16;5.40;99.90
52203;DHT22;38173;52.850;6.970;2023-05-27T02:58:51;5.40;99.90
52203;DHT22;38173;52.850;6.970;2023-05-27T03:01:17;5.40;99.90
52203;DHT22;38173;52.850;6.970;2023-05-27T03:03:46;5.50;99.90
52203;DHT22;38173;52.850;6.970;2023-05-27T03:06:12;5.50;99.90
52203;DHT22;38173;52.850;6.970;2023-05-27T03:08:43;5.60;99.90
52203;DHT22;38173;52.850;6.970;2023-05-27T03:11:09;5.70;99.90
52203;DHT22;38173;52.850;6.970;2023-05-27T03:13:35;5.80;99.90
52203;DHT22;38173;52.850;6.970;2023-05-27T03:16:03;5.90;99.90
52203;DHT22;38173;52.850;6.970;2023-05-27T03:18:29;6.10;99.90
52203;DHT22;38173;52.850;6.970;2023-05-27T03:20:55;6.20;99.90
52203;DHT22;38173;52.850;6.970;2023-05-27T03:23:21;6.30;99.90
52203;DHT22;38173;52.850;6.970;2023-05-27T03:25:50;6.40;99.90
52203;DHT22;38173;52.850;6.970;2023-05-27T03:28:16;6.40;99.90
52203;DHT22;38173;52.850;6.970;2023-05-27T03:30:45;6.50;99.90
52203;DHT22;38173;52.850;6.970;2023-05-27T03:33:12;6.50;99.90
52203;DHT22;38173;52.850;6.970;2023-05-27T03:35:37;6.60;99.90
52203;DHT22;38173;52.850;6.970;2023-05-27T03:38:03;6.60;99.90
52203;DHT22;38173;52.850;6.970;2023-05-27T03:40:29;6.70;99.90
52203;DHT22;38173;52.850;6.970;2023-05-27T03:42:55;6.70;99.90
52203;DHT22;38173;52.850;6.970;2023-05-27T03:45:21;6.80;99.90
52203;DHT22;38173;52.850;6.970;2023-05-27T03:47:47;6.80;99.90
52203;DHT22;38173;52.850;6.970;2023-05-27T03:50:13;6.90;99.90
52203;DHT22;38173;52.850;6.970;2023-05-27T03:52:38;6.90;99.90
52203;DHT22;38173;52.850;6.970;2023-05-27T03:55:04;6.90;99.90
52203;DHT22;38173;52.850;6.970;2023-05-27T03:57:31;7.00;99.90
52203;DHT22;38173;52.850;6.970;2023-05-27T03:59:57;6.90;99.90
52203;DHT22;38173;52.850;6.970;2023-05-27T04:02:26;6.90;99.90
52203;DHT22;38173;52.850;6.970;2023-05-27T04:04:52;6.90;99.90
52203;DHT22;38173;52.850;6.970;2023-05-27T04:07:21;6.90;99.90
52203;DHT22;38173;52.850;6.970;2023-05-27T04:09:52;6.80;99.90
52203;DHT22;38173;52.850;6.970;2023-05-27T04:12:21;6.80;99.90
52203;DHT22;38173;52.850;6.970;2023-05-27T04:14:47;6.80;99.90
52203;DHT22;38173;52.850;6.970;2023-05-27T04:17:13;6.80;99.90
52203;DHT22;38173;52.850;6.970;2023-05-27T04:19:42;6.90;99.90
52203;DHT22;38173;52.850;6.970;2023-05-27T04:22:09;6.80;99.90
52203;DHT22;38173;52.850;6.970;2023-05-27T04:24:35;6.90;99.90
52203;DHT22;38173;52.850;6.970;2023-05-27T04:27:00;6.90;99.90
52203;DHT22;38173;52.850;6.970;2023-05-27T04:29:28;7.00;99.90
52203;DHT22;38173;52.850;6.970;2023-05-27T04:32:02;7.00;99.90
52203;DHT22;38173;52.850;6.970;2023-05-27T04:34:28;7.10;99.90
52203;DHT22;38173;52.850;6.970;2023-05-27T04:36:55;7.10;99.90
52203;DHT22;38173;52.850;6.970;2023-05-27T04:39:27;7.10;99.90
52203;DHT22;38173;52.850;6.970;2023-05-27T04:41:52;7.10;99.90
52203;DHT22;38173;52.850;6.970;2023-05-27T04:44:18;7.20;99.90
52203;DHT22;38173;52.850;6.970;2023-05-27T04:46:47;7.20;99.90
52203;DHT22;38173;52.850;6.970;2023-05-27T04:49:13;7.30;99.90
52203;DHT22;38173;52.850;6.970;2023-05-27T04:51:39;7.30;99.90
52203;DHT22;38173;52.850;6.970;2023-05-27T04:54:10;7.40;99.90
52203;DHT22;38173;52.850;6.970;2023-05-27T04:56:37;7.50;99.90
52203;DHT22;38173;52.850;6.970;2023-05-27T04:59:09;7.50;99.90
52203;DHT22;38173;52.850;6.970;2023-05-27T05:01:42;7.60;99.90
52203;DHT22;38173;52.850;6.970;2023-05-27T05:04:37;7.70;99.90
52203;DHT22;38173;52.850;6.970;2023-05-27T05:07:09;7.80;99.90
52203;DHT22;38173;52.850;6.970;2023-05-27T05:09:36;7.80;99.90
52203;DHT22;38173;52.850;6.970;2023-05-27T05:12:02;7.90;99.90
52203;DHT22;38173;52.850;6.970;2023-05-27T05:14:30;8.00;99.90
52203;DHT22;38173;52.850;6.970;2023-05-27T05:16:59;8.10;99.90
52203;DHT22;38173;52.850;6.970;2023-05-27T05:19:24;8.20;99.90
52203;DHT22;38173;52.850;6.970;2023-05-27T05:21:53;8.30;99.90
52203;DHT22;38173;52.850;6.970;2023-05-27T05:24:19;8.40;99.90
52203;DHT22;38173;52.850;6.970;2023-05-27T05:26:50;8.50;99.90
52203;DHT22;38173;52.850;6.970;2023-05-27T05:29:16;8.60;99.90
52203;DHT22;38173;52.850;6.970;2023-05-27T05:31:42;8.70;99.90
52203;DHT22;38173;52.850;6.970;2023-05-27T05:34:13;8.80;99.90
52203;DHT22;38173;52.850;6.970;2023-05-27T05:36:47;9.00;99.90
52203;DHT22;38173;52.850;6.970;2023-05-27T05:39:13;9.10;99.90
52203;DHT22;38173;52.850;6.970;2023-05-27T05:41:41;9.20;99.90
52203;DHT22;38173;52.850;6.970;2023-05-27T05:44:10;9.30;99.90
52203;DHT22;38173;52.850;6.970;2023-05-27T05:46:37;9.40;99.90
52203;DHT22;38173;52.850;6.970;2023-05-27T05:49:03;9.50;99.90
52203;DHT22;38173;52.850;6.970;2023-05-27T05:51:30;9.60;99.90
52203;DHT22;38173;52.850;6.970;2023-05-27T05:53:59;9.70;99.90
52203;DHT22;38173;52.850;6.970;2023-05-27T05:56:25;9.70;99.90
52203;DHT22;38173;52.850;6.970;2023-05-27T05:58:54;9.70;99.90
52203;DHT22;38173;52.850;6.970;2023-05-27T06:01:20;9.70;99.90
52203;DHT22;38173;52.850;6.970;2023-05-27T06:03:46;9.80;99.90
52203;DHT22;38173;52.850;6.970;2023-05-27T06:06:12;9.90;99.90
52203;DHT22;38173;52.850;6.970;2023-05-27T06:08:39;9.90;99.90
52203;DHT22;38173;52.850;6.970;2023-05-27T06:11:05;10.00;99.90
52203;DHT22;38173;52.850;6.970;2023-05-27T06:13:31;10.00;99.90
52203;DHT22;38173;52.850;6.970;2023-05-27T06:15:59;10.00;99.90
52203;DHT22;38173;52.850;6.970;2023-05-27T06:18:28;10.00;99.90
52203;DHT22;38173;52.850;6.970;2023-05-27T06:20:54;10.00;99.90
52203;DHT22;38173;52.850;6.970;2023-05-27T06:23:26;10.00;99.90
52203;DHT22;38173;52.850;6.970;2023-05-27T06:25:52;10.00;99.90
52203;DHT22;38173;52.850;6.970;2023-05-27T06:28:18;10.00;99.90
52203;DHT22;38173;52.850;6.970;2023-05-27T06:30:47;10.00;99.90
52203;DHT22;38173;52.850;6.970;2023-05-27T06:33:16;10.00;99.90
52203;DHT22;38173;52.850;6.970;2023-05-27T06:35:42;10.00;99.90
52203;DHT22;38173;52.850;6.970;2023-05-27T06:38:09;10.10;99.90
52203;DHT22;38173;52.850;6.970;2023-05-27T06:40:38;10.10;99.90
52203;DHT22;38173;52.850;6.970;2023-05-27T06:43:06;10.20;99.90
52203;DHT22;38173;52.850;6.970;2023-05-27T06:45:33;10.40;99.90
52203;DHT22;38173;52.850;6.970;2023-05-27T06:47:58;10.50;99.90
52203;DHT22;38173;52.850;6.970;2023-05-27T06:50:25;10.70;99.90
52203;DHT22;38173;52.850;6.970;2023-05-27T06:52:51;10.90;99.90
52203;DHT22;38173;52.850;6.970;2023-05-27T06:55:17;11.10;99.90
52203;DHT22;38173;52.850;6.970;2023-05-27T06:57:43;11.20;99.90
52203;DHT22;38173;52.850;6.970;2023-05-27T07:00:09;11.30;99.90
52203;DHT22;38173;52.850;6.970;2023-05-27T07:02:34;11.40;99.90
52203;DHT22;38173;52.850;6.970;2023-05-27T07:05:00;11.50;99.90
52203;DHT22;38173;52.850;6.970;2023-05-27T07:07:26;11.70;99.90
52203;DHT22;38173;52.850;6.970;2023-05-27T07:09:52;11.80;99.90
52203;DHT22;38173;52.850;6.970;2023-05-27T07:12:19;11.90;99.90
52203;DHT22;38173;52.850;6.970;2023-05-27T07:14:45;12.10;99.90
52203;DHT22;38173;52.850;6.970;2023-05-27T07:17:11;12.20;99.90
52203;DHT22;38173;52.850;6.970;2023-05-27T07:19:37;12.30;99.90
52203;DHT22;38173;52.850;6.970;2023-05-27T07:22:03;12.30;99.90
52203;DHT22;38173;52.850;6.970;2023-05-27T07:24:29;12.40;99.90
52203;DHT22;38173;52.850;6.970;2023-05-27T07:26:54;12.40;99.90
52203;DHT22;38173;52.850;6.970;2023-05-27T07:29:21;12.50;99.90
52203;DHT22;38173;52.850;6.970;2023-05-27T07:31:47;12.70;99.90
52203;DHT22;38173;52.850;6.970;2023-05-27T07:34:12;12.70;99.90
52203;DHT22;38173;52.850;6.970;2023-05-27T07:36:38;12.80;99.90
52203;DHT22;38173;52.850;6.970;2023-05-27T07:39:04;12.90;99.90
52203;DHT22;38173;52.850;6.970;2023-05-27T07:41:29;13.10;99.90
52203;DHT22;38173;52.850;6.970;2023-05-27T07:43:55;13.20;99.90
52203;DHT22;38173;52.850;6.970;2023-05-27T07:46:21;13.30;99.90
52203;DHT22;38173;52.850;6.970;2023-05-27T07:48:47;13.40;99.90
52203;DHT22;38173;52.850;6.970;2023-05-27T07:51:13;13.50;99.90
52203;DHT22;38173;52.850;6.970;2023-05-27T07:53:38;13.60;99.90
52203;DHT22;38173;52.850;6.970;2023-05-27T07:56:04;13.70;99.90
52203;DHT22;38173;52.850;6.970;2023-05-27T07:58:30;13.70;99.90
52203;DHT22;38173;52.850;6.970;2023-05-27T08:00:55;13.80;99.90
52203;DHT22;38173;52.850;6.970;2023-05-27T08:03:21;14.00;99.90
52203;DHT22;38173;52.850;6.970;2023-05-27T08:05:47;14.00;99.90
52203;DHT22;38173;52.850;6.970;2023-05-27T08:08:13;14.10;99.90
52203;DHT22;38173;52.850;6.970;2023-05-27T08:10:38;14.30;99.90
52203;DHT22;38173;52.850;6.970;2023-05-27T08:13:04;14.40;99.90
52203;DHT22;38173;52.850;6.970;2023-05-27T08:15:30;14.50;99.90
52203;DHT22;38173;52.850;6.970;2023-05-27T08:17:56;14.60;99.90
52203;DHT22;38173;52.850;6.970;2023-05-27T08:20:22;14.60;99.90
52203;DHT22;38173;52.850;6.970;2023-05-27T08:22:47;14.70;99.90
52203;DHT22;38173;52.850;6.970;2023-05-27T08:25:13;14.80;99.90
52203;DHT22;38173;52.850;6.970;2023-05-27T08:27:43;15.00;99.90
52203;DHT22;38173;52.850;6.970;2023-05-27T08:30:13;15.10;99.90
52203;DHT22;38173;52.850;6.970;2023-05-27T08:32:39;15.20;99.90
52203;DHT22;38173;52.850;6.970;2023-05-27T08:35:06;15.40;99.90
52203;DHT22;38173;52.850;6.970;2023-05-27T08:37:32;15.40;99.90
52203;DHT22;38173;52.850;6.970;2023-05-27T08:39:57;15.40;99.90
52203;DHT22;38173;52.850;6.970;2023-05-27T08:42:29;15.50;99.90
52203;DHT22;38173;52.850;6.970;2023-05-27T08:44:55;15.60;99.90
52203;DHT22;38173;52.850;6.970;2023-05-27T08:47:21;15.70;99.90
52203;DHT22;38173;52.850;6.970;2023-05-27T08:49:48;15.80;99.90
52203;DHT22;38173;52.850;6.970;2023-05-27T08:52:17;15.80;99.90
52203;DHT22;38173;52.850;6.970;2023-05-27T08:54:44;15.80;99.90
52203;DHT22;38173;52.850;6.970;2023-05-27T08:57:10;15.80;99.90
52203;DHT22;38173;52.850;6.970;2023-05-27T08:59:38;16.00;99.90
52203;DHT22;38173;52.850;6.970;2023-05-27T09:02:05;16.10;99.90
52203;DHT22;38173;52.850;6.970;2023-05-27T09:04:31;16.30;99.90
52203;DHT22;38173;52.850;6.970;2023-05-27T09:06:57;16.40;99.90
52203;DHT22;38173;52.850;6.970;2023-05-27T09:09:23;16.40;99.90
52203;DHT22;38173;52.850;6.970;2023-05-27T09:11:48;16.50;99.90
52203;DHT22;38173;52.850;6.970;2023-05-27T09:14:20;16.60;99.90
52203;DHT22;38173;52.850;6.970;2023-05-27T09:16:46;16.70;99.90
52203;DHT22;38173;52.850;6.970;2023-05-27T09:19:17;16.80;99.90
52203;DHT22;38173;52.850;6.970;2023-05-27T09:21:43;16.90;99.90
52203;DHT22;38173;52.850;6.970;2023-05-27T09:24:11;16.90;99.90
52203;DHT22;38173;52.850;6.970;2023-05-27T09:26:37;17.00;99.90
52203;DHT22;38173;52.850;6.970;2023-05-27T09:29:09;17.10;99.90
52203;DHT22;38173;52.850;6.970;2023-05-27T09:31:38;17.10;99.90
52203;DHT22;38173;52.850;6.970;2023-05-27T09:34:11;17.30;99.90
52203;DHT22;38173;52.850;6.970;2023-05-27T09:36:51;17.40;99.90
52203;DHT22;38173;52.850;6.970;2023-05-27T09:39:17;17.50;99.90
52203;DHT22;38173;52.850;6.970;2023-05-27T09:41:43;17.60;99.90
52203;DHT22;38173;52.850;6.970;2023-05-27T09:44:09;17.60;99.90
52203;DHT22;38173;52.850;6.970;2023-05-27T09:46:35;17.70;99.90
52203;DHT22;38173;52.850;6.970;2023-05-27T09:49:01;17.80;99.90
52203;DHT22;38173;52.850;6.970;2023-05-27T09:51:31;17.90;99.90
52203;DHT22;38173;52.850;6.970;2023-05-27T09:54:00;17.90;99.90
52203;DHT22;38173;52.850;6.970;2023-05-27T09:56:27;17.80;99.90
52203;DHT22;38173;52.850;6.970;2023-05-27T09:58:56;17.90;99.90
52203;DHT22;38173;52.850;6.970;2023-05-27T10:01:27;17.80;99.90
52203;DHT22;38173;52.850;6.970;2023-05-27T10:03:57;17.80;99.90
52203;DHT22;38173;52.850;6.970;2023-05-27T10:06:23;17.80;98.50
52203;DHT22;38173;52.850;6.970;2023-05-27T10:08:50;17.80;99.90
52203;DHT22;38173;52.850;6.970;2023-05-27T10:11:18;18.00;99.60
52203;DHT22;38173;52.850;6.970;2023-05-27T10:13:44;18.00;99.60
52203;DHT22;38173;52.850;6.970;2023-05-27T10:16:18;18.20;99.10
52203;DHT22;38173;52.850;6.970;2023-05-27T10:18:43;18.30;99.90
52203;DHT22;38173;52.850;6.970;2023-05-27T10:21:09;18.50;99.90
52203;DHT22;38173;52.850;6.970;2023-05-27T10:23:38;18.60;96.10
52203;DHT22;38173;52.850;6.970;2023-05-27T10:26:07;18.70;96.20
52203;DHT22;38173;52.850;6.970;2023-05-27T10:28:34;18.90;94.60
52203;DHT22;38173;52.850;6.970;2023-05-27T10:31:11;18.90;92.70
52203;DHT22;38173;52.850;6.970;2023-05-27T10:33:37;18.90;90.90
52203;DHT22;38173;52.850;6.970;2023-05-27T10:36:13;19.10;94.30
52203;DHT22;38173;52.850;6.970;2023-05-27T10:38:40;19.40;94.50
52203;DHT22;38173;52.850;6.970;2023-05-27T10:41:07;19.70;96.30
52203;DHT22;38173;52.850;6.970;2023-05-27T10:43:33;19.90;93.50
52203;DHT22;38173;52.850;6.970;2023-05-27T10:46:09;20.00;91.00
52203;DHT22;38173;52.850;6.970;2023-05-27T10:48:35;20.00;87.00
52203;DHT22;38173;52.850;6.970;2023-05-27T10:51:02;20.00;81.10
52203;DHT22;38173;52.850;6.970;2023-05-27T10:53:28;20.00;83.40
52203;DHT22;38173;52.850;6.970;2023-05-27T10:55:59;20.00;78.70
52203;DHT22;38173;52.850;6.970;2023-05-27T10:58:25;20.20;80.90
52203;DHT22;38173;52.850;6.970;2023-05-27T11:00:52;20.30;80.50
52203;DHT22;38173;52.850;6.970;2023-05-27T11:03:27;20.40;81.60
52203;DHT22;38173;52.850;6.970;2023-05-27T11:06:05;20.50;76.90
52203;DHT22;38173;52.850;6.970;2023-05-27T11:08:32;20.60;80.00
52203;DHT22;38173;52.850;6.970;2023-05-27T11:10:59;20.70;77.00
52203;DHT22;38173;52.850;6.970;2023-05-27T11:13:35;20.80;81.70
52203;DHT22;38173;52.850;6.970;2023-05-27T11:16:04;20.90;76.90
52203;DHT22;38173;52.850;6.970;2023-05-27T11:18:35;20.90;75.70
52203;DHT22;38173;52.850;6.970;2023-05-27T11:21:01;20.90;74.70
52203;DHT22;38173;52.850;6.970;2023-05-27T11:23:34;20.60;74.30
52203;DHT22;38173;52.850;6.970;2023-05-27T11:26:00;20.50;74.60
52203;DHT22;38173;52.850;6.970;2023-05-27T11:28:26;20.40;73.60
52203;DHT22;38173;52.850;6.970;2023-05-27T11:30:57;20.40;75.30
52203;DHT22;38173;52.850;6.970;2023-05-27T11:33:29;20.40;78.10
52203;DHT22;38173;52.850;6.970;2023-05-27T11:36:04;20.40;82.70
52203;DHT22;38173;52.850;6.970;2023-05-27T11:38:30;20.50;77.50
52203;DHT22;38173;52.850;6.970;2023-05-27T11:41:06;20.60;73.20
52203;DHT22;38173;52.850;6.970;2023-05-27T11:43:32;20.40;73.50
52203;DHT22;38173;52.850;6.970;2023-05-27T11:46:04;20.40;74.10
52203;DHT22;38173;52.850;6.970;2023-05-27T11:48:30;20.30;72.50
52203;DHT22;38173;52.850;6.970;2023-05-27T11:50:56;20.40;76.30
52203;DHT22;38173;52.850;6.970;2023-05-27T11:53:26;20.60;76.70
52203;DHT22;38173;52.850;6.970;2023-05-27T11:55:52;20.90;71.50
52203;DHT22;38173;52.850;6.970;2023-05-27T11:58:18;21.00;73.20
52203;DHT22;38173;52.850;6.970;2023-05-27T12:00:43;21.10;74.70
52203;DHT22;38173;52.850;6.970;2023-05-27T12:03:09;21.30;76.40
52203;DHT22;38173;52.850;6.970;2023-05-27T12:05:35;21.30;77.80
52203;DHT22;38173;52.850;6.970;2023-05-27T12:08:01;21.50;71.90
52203;DHT22;38173;52.850;6.970;2023-05-27T12:10:26;21.60;73.10
52203;DHT22;38173;52.850;6.970;2023-05-27T12:12:52;21.80;73.80
52203;DHT22;38173;52.850;6.970;2023-05-27T12:15:17;21.90;74.00
52203;DHT22;38173;52.850;6.970;2023-05-27T12:17:43;22.10;67.70
52203;DHT22;38173;52.850;6.970;2023-05-27T12:20:09;22.20;64.20
52203;DHT22;38173;52.850;6.970;2023-05-27T12:22:37;22.30;67.60
52203;DHT22;38173;52.850;6.970;2023-05-27T12:25:06;22.30;68.00
52203;DHT22;38173;52.850;6.970;2023-05-27T12:27:32;22.40;68.80
52203;DHT22;38173;52.850;6.970;2023-05-27T12:29:58;22.40;64.10
52203;DHT22;38173;52.850;6.970;2023-05-27T12:32:24;22.60;65.40
52203;DHT22;38173;52.850;6.970;2023-05-27T12:34:50;22.70;66.80
52203;DHT22;38173;52.850;6.970;2023-05-27T12:37:18;22.70;67.80
52203;DHT22;38173;52.850;6.970;2023-05-27T12:39:44;22.90;62.90
52203;DHT22;38173;52.850;6.970;2023-05-27T12:42:09;23.00;70.90
52203;DHT22;38173;52.850;6.970;2023-05-27T12:44:35;23.00;68.90
52203;DHT22;38173;52.850;6.970;2023-05-27T12:47:01;23.20;68.50
52203;DHT22;38173;52.850;6.970;2023-05-27T12:49:29;23.70;63.20
52203;DHT22;38173;52.850;6.970;2023-05-27T12:51:55;23.80;58.30
52203;DHT22;38173;52.850;6.970;2023-05-27T12:54:21;24.10;62.10
52203;DHT22;38173;52.850;6.970;2023-05-27T12:56:46;24.10;59.80
52203;DHT22;38173;52.850;6.970;2023-05-27T12:59:12;24.30;60.30
52203;DHT22;38173;52.850;6.970;2023-05-27T13:01:38;24.50;64.10
52203;DHT22;38173;52.850;6.970;2023-05-27T13:04:04;24.80;58.90
52203;DHT22;38173;52.850;6.970;2023-05-27T13:06:29;25.10;58.30
52203;DHT22;38173;52.850;6.970;2023-05-27T13:08:55;25.20;62.30
52203;DHT22;38173;52.850;6.970;2023-05-27T13:11:20;25.40;62.10
52203;DHT22;38173;52.850;6.970;2023-05-27T13:13:46;25.50;63.20
52203;DHT22;38173;52.850;6.970;2023-05-27T13:16:13;25.50;58.10
52203;DHT22;38173;52.850;6.970;2023-05-27T13:18:38;25.70;62.90
52203;DHT22;38173;52.850;6.970;2023-05-27T13:21:04;26.00;61.00
52203;DHT22;38173;52.850;6.970;2023-05-27T13:23:33;26.30;61.40
52203;DHT22;38173;52.850;6.970;2023-05-27T13:25:58;26.50;59.20
52203;DHT22;38173;52.850;6.970;2023-05-27T13:28:27;26.90;61.40
52203;DHT22;38173;52.850;6.970;2023-05-27T13:30:53;27.40;61.90
52203;DHT22;38173;52.850;6.970;2023-05-27T13:33:18;27.40;55.60
52203;DHT22;38173;52.850;6.970;2023-05-27T13:35:44;27.40;53.80
52203;DHT22;38173;52.850;6.970;2023-05-27T13:38:12;27.70;54.30
52203;DHT22;38173;52.850;6.970;2023-05-27T13:40:39;28.10;59.40
52203;DHT22;38173;52.850;6.970;2023-05-27T13:43:06;28.40;57.10
52203;DHT22;38173;52.850;6.970;2023-05-27T13:45:31;28.70;57.10
52203;DHT22;38173;52.850;6.970;2023-05-27T13:47:57;28.60;50.70
52203;DHT22;38173;52.850;6.970;2023-05-27T13:50:23;28.30;51.50
52203;DHT22;38173;52.850;6.970;2023-05-27T13:52:48;28.30;53.10
52203;DHT22;38173;52.850;6.970;2023-05-27T13:55:14;28.60;56.70
52203;DHT22;38173;52.850;6.970;2023-05-27T13:57:40;28.70;54.20
52203;DHT22;38173;52.850;6.970;2023-05-27T14:00:06;28.90;55.00
52203;DHT22;38173;52.850;6.970;2023-05-27T14:02:32;29.30;52.60
52203;DHT22;38173;52.850;6.970;2023-05-27T14:04:58;29.70;51.50
52203;DHT22;38173;52.850;6.970;2023-05-27T14:07:23;29.70;50.80
52203;DHT22;38173;52.850;6.970;2023-05-27T14:09:49;29.50;49.70
52203;DHT22;38173;52.850;6.970;2023-05-27T14:12:15;29.70;50.10
52203;DHT22;38173;52.850;6.970;2023-05-27T14:14:40;29.90;51.40
52203;DHT22;38173;52.850;6.970;2023-05-27T14:17:06;30.10;47.90
52203;DHT22;38173;52.850;6.970;2023-05-27T14:19:33;29.90;48.80
52203;DHT22;38173;52.850;6.970;2023-05-27T14:21:59;29.50;48.70
52203;DHT22;38173;52.850;6.970;2023-05-27T14:24:25;29.20;49.30
52203;DHT22;38173;52.850;6.970;2023-05-27T14:26:51;29.30;47.30
52203;DHT22;38173;52.850;6.970;2023-05-27T14:29:16;29.40;47.00
52203;DHT22;38173;52.850;6.970;2023-05-27T14:31:42;29.90;49.20
52203;DHT22;38173;52.850;6.970;2023-05-27T14:34:08;30.50;50.70
52203;DHT22;38173;52.850;6.970;2023-05-27T14:36:33;30.90;51.90
52203;DHT22;38173;52.850;6.970;2023-05-27T14:38:59;31.00;50.90
52203;DHT22;38173;52.850;6.970;2023-05-27T14:41:31;30.90;51.50
52203;DHT22;38173;52.850;6.970;2023-05-27T14:43:57;30.80;47.90
52203;DHT22;38173;52.850;6.970;2023-05-27T14:46:22;30.90;48.90
52203;DHT22;38173;52.850;6.970;2023-05-27T14:48:50;31.30;47.90
52203;DHT22;38173;52.850;6.970;2023-05-27T14:51:16;31.40;45.50
52203;DHT22;38173;52.850;6.970;2023-05-27T14:53:42;31.40;46.30
52203;DHT22;38173;52.850;6.970;2023-05-27T14:56:07;31.40;48.10
52203;DHT22;38173;52.850;6.970;2023-05-27T14:58:33;31.40;50.20
52203;DHT22;38173;52.850;6.970;2023-05-27T15:00:59;31.30;50.90
52203;DHT22;38173;52.850;6.970;2023-05-27T15:03:28;31.60;49.50
52203;DHT22;38173;52.850;6.970;2023-05-27T15:05:55;31.80;50.80
52203;DHT22;38173;52.850;6.970;2023-05-27T15:08:24;31.80;48.10
52203;DHT22;38173;52.850;6.970;2023-05-27T15:10:50;32.00;49.50
52203;DHT22;38173;52.850;6.970;2023-05-27T15:13:20;32.20;48.60
52203;DHT22;38173;52.850;6.970;2023-05-27T15:15:45;32.60;47.00
52203;DHT22;38173;52.850;6.970;2023-05-27T15:18:11;32.70;48.30
52203;DHT22;38173;52.850;6.970;2023-05-27T15:20:37;32.60;48.50
52203;DHT22;38173;52.850;6.970;2023-05-27T15:23:05;32.60;46.50
52203;DHT22;38173;52.850;6.970;2023-05-27T15:25:31;32.50;43.80
52203;DHT22;38173;52.850;6.970;2023-05-27T15:27:57;32.50;43.60
52203;DHT22;38173;52.850;6.970;2023-05-27T15:30:23;32.60;47.60
52203;DHT22;38173;52.850;6.970;2023-05-27T15:32:48;32.70;46.50
52203;DHT22;38173;52.850;6.970;2023-05-27T15:35:15;32.40;49.10
52203;DHT22;38173;52.850;6.970;2023-05-27T15:37:42;32.40;47.50
52203;DHT22;38173;52.850;6.970;2023-05-27T15:40:08;32.50;49.80
52203;DHT22;38173;52.850;6.970;2023-05-27T15:42:34;32.50;47.20